Terminal Aerodrome Forecast
Issued by NWS

Home | Current Version | Previous Version | Text Only | Print | Product List | Glossary On
Versions: 1 2 3 4 5 6 7 8 9 10 11 12
966
FTUS44 KSJT 150520
TAFSOA
TAF
KSOA 150520Z 1506/1606 02010KT P6SM BKN250
     FM160000 VRB04KT P6SM BKN250=

USA.gov is the U.S. government's official web portal to all federal, state and local government web resources and services.